Medical Lake, WA (99022)

2:21 AM PDT on September 01, 2014 (GMT -0700)
Fairchild Air Force Base | Change Station
CLOSE
Current Station
Airport
Location: Spokane Fairchild,
Elevation: 2461 ft
Nearby Weather Stations

Elev 2461 ft 47.62 °N, 117.66 °W | Updated 23 minutes ago

Scattered Clouds
Scattered Clouds
49 °F
Feels Like 49 °F
N
7
Wind Variable Wind from South

Today
High -- | Low -- °F
--% Chance of Precip.
Yesterday
High -- | Low -- °F
Precip. -- in
6:09 AM 7:31 PM
Waxing Crescent, 39% visible
Pressure 29.98 in
Visibility 10.0 miles
Clouds Scattered Clouds 17000 ft
Dew Point 38 °F
Humidity 65%
Rainfall 0.00 in
Snow Depth Not available.
UV 0 out of 12
Pollen 6.20 out of 12
PM2.5 Good
Flu Activity Not available.
METAR KSKA 010858Z AUTO 18006KT 10SM SCT170 10/03 A2998 RMK AO2 SLP150 T00960034 50004

More Conditions Fewer Conditions

Pressure 29.98 in
Visibility 10.0 miles
Clouds Scattered Clouds 17000 ft
Dew Point 38 °F
Humidity 65%
Rainfall 0.00 in
Snow Depth Not available.
UV 0 out of 12
Pollen 6.20 out of 12
PM2.5 Good
Flu Activity Not available.
METAR KSKA 010858Z AUTO 18006KT 10SM SCT170 10/03 A2998 RMK AO2 SLP150 T00960034 50004

More Conditions Fewer Conditions

10-Day Weather Forecast

Almanac

Astronomy

Sep. 01, 2014 Rise Set
Actual Time 6:09 AM PDT 7:31 PM PDT
Civil Twilight 5:37 AM PDT 8:02 PM PDT
Nautical Twilight 4:58 AM PDT 8:41 PM PDT
Astronomical Twilight 4:17 AM PDT 9:22 PM PDT
Moon 1:28 PM PDT 11:06 PM PDT
Length of Visible Light 14h 25m
Length of Day
13h 21m
Tomorrow will be 3m 19s shorter.
Waxing Crescent, 39% of the Moon is Illuminated
Today
Waxing Crescent
Sep 2
First Quarter
Sep 8
Full
Sep 15
Last Quarter
Sep 24
New

Today's Extremes

State Highs State Lows

Community

WunderPhotos

Upload Photos

1,749,178 photos uploaded!

Nearby

Air Quality

  Air Quality AQ Index Pollutant
Yesterday Good
OZONE
Yesterday Good
PM10
Current Good
PM2.5
Monday Good
PM10
Monday Good
OZONE

Snow Depth

Station Depth Elevation
Quartz Peak 1 in 4700 ft
Bunchgrass Meadow 0 in 5000 ft
Moses Mountain 1 in 5300 ft
Sentinel Butte 1 in 4920 ft
Sourdough Gulch 0 in 4000 ft

Earthquake Activity

City Distance Mag. Time & Date
No recent earthquake activity has been reported nearby.
Minimum magnitude displayed is 2.5.

Coastal Water Temperatures

Place Temperature
No Stations Reporting

Nearby Weather Stations